sensor_id;sensor_type;location;lat;lon;timestamp;temperature;humidity
77700;DHT22;66867;42.658;23.320;2023-07-16T00:00:00;26.1;68
77700;DHT22;66867;42.658;23.320;2023-07-16T00:01:00;26.1;68
77700;DHT22;66867;42.658;23.320;2023-07-16T00:02:00;26.1;68
77700;DHT22;66867;42.658;23.320;2023-07-16T00:03:00;26.0;68
77700;DHT22;66867;42.658;23.320;2023-07-16T00:04:00;26.0;68
77700;DHT22;66867;42.658;23.320;2023-07-16T00:05:00;26.1;68
77700;DHT22;66867;42.658;23.320;2023-07-16T00:06:00;26.1;68
77700;DHT22;66867;42.658;23.320;2023-07-16T00:07:00;26.1;68
77700;DHT22;66867;42.658;23.320;2023-07-16T00:08:00;26.0;68
77700;DHT22;66867;42.658;23.320;2023-07-16T00:09:00;26.0;68
77700;DHT22;66867;42.658;23.320;2023-07-16T00:10:00;26.0;68
77700;DHT22;66867;42.658;23.320;2023-07-16T00:11:00;26.0;68
77700;DHT22;66867;42.658;23.320;2023-07-16T00:12:00;26.0;68
77700;DHT22;66867;42.658;23.320;2023-07-16T00:13:00;26.0;68
77700;DHT22;66867;42.658;23.320;2023-07-16T00:14:00;26.0;69
77700;DHT22;66867;42.658;23.320;2023-07-16T00:15:00;26.0;68
77700;DHT22;66867;42.658;23.320;2023-07-16T00:16:00;26.0;68
77700;DHT22;66867;42.658;23.320;2023-07-16T00:17:00;26.0;68
77700;DHT22;66867;42.658;23.320;2023-07-16T00:18:00;26.0;68
77700;DHT22;66867;42.658;23.320;2023-07-16T00:19:00;26.0;68
77700;DHT22;66867;42.658;23.320;2023-07-16T00:20:00;26.0;68
77700;DHT22;66867;42.658;23.320;2023-07-16T00:21:00;26.0;68
77700;DHT22;66867;42.658;23.320;2023-07-16T00:22:00;26.0;68
77700;DHT22;66867;42.658;23.320;2023-07-16T00:23:00;26.0;68
77700;DHT22;66867;42.658;23.320;2023-07-16T00:24:00;25.9;68
77700;DHT22;66867;42.658;23.320;2023-07-16T00:25:00;25.9;68
77700;DHT22;66867;42.658;23.320;2023-07-16T00:26:00;25.9;68
77700;DHT22;66867;42.658;23.320;2023-07-16T00:27:00;25.9;68
77700;DHT22;66867;42.658;23.320;2023-07-16T00:28:00;25.9;69
77700;DHT22;66867;42.658;23.320;2023-07-16T00:29:00;25.9;69
77700;DHT22;66867;42.658;23.320;2023-07-16T00:30:00;25.9;69
77700;DHT22;66867;42.658;23.320;2023-07-16T00:31:00;25.9;69
77700;DHT22;66867;42.658;23.320;2023-07-16T00:32:00;25.9;69
77700;DHT22;66867;42.658;23.320;2023-07-16T00:33:00;25.9;69
77700;DHT22;66867;42.658;23.320;2023-07-16T00:34:00;25.9;69
77700;DHT22;66867;42.658;23.320;2023-07-16T00:35:01;25.9;69
77700;DHT22;66867;42.658;23.320;2023-07-16T00:36:01;25.8;69
77700;DHT22;66867;42.658;23.320;2023-07-16T00:37:00;25.8;69
77700;DHT22;66867;42.658;23.320;2023-07-16T00:38:00;25.8;69
77700;DHT22;66867;42.658;23.320;2023-07-16T00:39:00;25.8;69
77700;DHT22;66867;42.658;23.320;2023-07-16T00:40:00;25.8;69
77700;DHT22;66867;42.658;23.320;2023-07-16T00:41:00;25.8;69
77700;DHT22;66867;42.658;23.320;2023-07-16T00:42:00;25.8;69
77700;DHT22;66867;42.658;23.320;2023-07-16T00:43:00;25.8;69
77700;DHT22;66867;42.658;23.320;2023-07-16T00:44:00;25.7;69
77700;DHT22;66867;42.658;23.320;2023-07-16T00:45:00;25.7;69
77700;DHT22;66867;42.658;23.320;2023-07-16T00:46:00;25.7;69
77700;DHT22;66867;42.658;23.320;2023-07-16T00:47:00;25.7;69
77700;DHT22;66867;42.658;23.320;2023-07-16T00:48:00;25.7;69
77700;DHT22;66867;42.658;23.320;2023-07-16T00:49:00;25.6;69
77700;DHT22;66867;42.658;23.320;2023-07-16T00:50:00;25.6;69
77700;DHT22;66867;42.658;23.320;2023-07-16T00:51:00;25.6;69
77700;DHT22;66867;42.658;23.320;2023-07-16T00:52:00;25.6;69
77700;DHT22;66867;42.658;23.320;2023-07-16T00:53:00;25.6;69
77700;DHT22;66867;42.658;23.320;2023-07-16T00:54:00;25.6;69
77700;DHT22;66867;42.658;23.320;2023-07-16T00:55:00;25.6;70
77700;DHT22;66867;42.658;23.320;2023-07-16T00:56:00;25.6;69
77700;DHT22;66867;42.658;23.320;2023-07-16T00:57:00;25.6;69
77700;DHT22;66867;42.658;23.320;2023-07-16T00:58:01;25.6;69
77700;DHT22;66867;42.658;23.320;2023-07-16T00:59:00;25.6;70
77700;DHT22;66867;42.658;23.320;2023-07-16T01:00:00;25.6;69
77700;DHT22;66867;42.658;23.320;2023-07-16T01:01:00;25.5;69
77700;DHT22;66867;42.658;23.320;2023-07-16T01:02:00;25.5;69
77700;DHT22;66867;42.658;23.320;2023-07-16T01:03:04;25.6;70
77700;DHT22;66867;42.658;23.320;2023-07-16T01:04:00;25.6;70
77700;DHT22;66867;42.658;23.320;2023-07-16T01:05:00;25.5;70
77700;DHT22;66867;42.658;23.320;2023-07-16T01:07:01;25.5;70
77700;DHT22;66867;42.658;23.320;2023-07-16T01:08:02;25.5;70
77700;DHT22;66867;42.658;23.320;2023-07-16T01:09:02;25.5;70
77700;DHT22;66867;42.658;23.320;2023-07-16T01:10:00;25.5;70
77700;DHT22;66867;42.658;23.320;2023-07-16T01:11:00;25.5;70
77700;DHT22;66867;42.658;23.320;2023-07-16T01:12:00;25.5;70
77700;DHT22;66867;42.658;23.320;2023-07-16T01:13:00;25.5;70
77700;DHT22;66867;42.658;23.320;2023-07-16T01:14:00;25.5;70
77700;DHT22;66867;42.658;23.320;2023-07-16T01:15:00;25.5;70
77700;DHT22;66867;42.658;23.320;2023-07-16T01:16:00;25.4;70
77700;DHT22;66867;42.658;23.320;2023-07-16T01:17:04;25.4;70
77700;DHT22;66867;42.658;23.320;2023-07-16T01:18:00;25.4;69
77700;DHT22;66867;42.658;23.320;2023-07-16T01:19:00;25.4;70
77700;DHT22;66867;42.658;23.320;2023-07-16T01:20:00;25.4;70
77700;DHT22;66867;42.658;23.320;2023-07-16T01:21:00;25.4;70
77700;DHT22;66867;42.658;23.320;2023-07-16T01:26:02;25.4;70
77700;DHT22;66867;42.658;23.320;2023-07-16T01:30:01;25.4;70
77700;DHT22;66867;42.658;23.320;2023-07-16T01:31:00;25.3;70
77700;DHT22;66867;42.658;23.320;2023-07-16T01:32:00;25.3;70
77700;DHT22;66867;42.658;23.320;2023-07-16T01:33:00;25.3;70
77700;DHT22;66867;42.658;23.320;2023-07-16T01:34:00;25.3;70
77700;DHT22;66867;42.658;23.320;2023-07-16T01:35:00;25.3;70
77700;DHT22;66867;42.658;23.320;2023-07-16T01:36:00;25.3;70
77700;DHT22;66867;42.658;23.320;2023-07-16T01:37:00;25.3;70
77700;DHT22;66867;42.658;23.320;2023-07-16T01:38:00;25.3;70
77700;DHT22;66867;42.658;23.320;2023-07-16T01:39:00;25.4;69
77700;DHT22;66867;42.658;23.320;2023-07-16T01:40:00;25.3;70
77700;DHT22;66867;42.658;23.320;2023-07-16T01:41:00;25.4;70
77700;DHT22;66867;42.658;23.320;2023-07-16T01:42:00;25.3;70
77700;DHT22;66867;42.658;23.320;2023-07-16T01:43:00;25.3;70
77700;DHT22;66867;42.658;23.320;2023-07-16T01:44:00;25.3;69
77700;DHT22;66867;42.658;23.320;2023-07-16T01:45:00;25.3;70
77700;DHT22;66867;42.658;23.320;2023-07-16T01:46:00;25.3;70
77700;DHT22;66867;42.658;23.320;2023-07-16T01:49:00;25.3;70
77700;DHT22;66867;42.658;23.320;2023-07-16T01:50:00;25.3;70
77700;DHT22;66867;42.658;23.320;2023-07-16T01:51:00;25.3;70
77700;DHT22;66867;42.658;23.320;2023-07-16T01:52:01;25.3;70
77700;DHT22;66867;42.658;23.320;2023-07-16T01:53:00;25.2;70
77700;DHT22;66867;42.658;23.320;2023-07-16T01:54:00;25.2;70
77700;DHT22;66867;42.658;23.320;2023-07-16T01:55:00;25.2;70
77700;DHT22;66867;42.658;23.320;2023-07-16T01:56:00;25.2;70
77700;DHT22;66867;42.658;23.320;2023-07-16T01:57:00;25.2;70
77700;DHT22;66867;42.658;23.320;2023-07-16T01:58:00;25.2;70
77700;DHT22;66867;42.658;23.320;2023-07-16T01:59:00;25.2;70
77700;DHT22;66867;42.658;23.320;2023-07-16T02:00:00;25.2;70
77700;DHT22;66867;42.658;23.320;2023-07-16T02:01:00;25.2;70
77700;DHT22;66867;42.658;23.320;2023-07-16T02:02:00;25.2;70
77700;DHT22;66867;42.658;23.320;2023-07-16T02:03:00;25.2;70
77700;DHT22;66867;42.658;23.320;2023-07-16T02:04:00;25.1;70
77700;DHT22;66867;42.658;23.320;2023-07-16T02:05:00;25.1;70
77700;DHT22;66867;42.658;23.320;2023-07-16T02:06:00;25.1;70
77700;DHT22;66867;42.658;23.320;2023-07-16T02:07:00;25.1;70
77700;DHT22;66867;42.658;23.320;2023-07-16T02:08:00;25.1;70
77700;DHT22;66867;42.658;23.320;2023-07-16T02:09:00;25.1;70
77700;DHT22;66867;42.658;23.320;2023-07-16T02:10:00;25.1;70
77700;DHT22;66867;42.658;23.320;2023-07-16T02:11:00;25.1;70
77700;DHT22;66867;42.658;23.320;2023-07-16T02:12:00;25.1;70
77700;DHT22;66867;42.658;23.320;2023-07-16T02:13:00;25.1;70
77700;DHT22;66867;42.658;23.320;2023-07-16T02:14:00;25.1;70
77700;DHT22;66867;42.658;23.320;2023-07-16T02:15:00;25.1;71
77700;DHT22;66867;42.658;23.320;2023-07-16T02:16:00;25.1;70
77700;DHT22;66867;42.658;23.320;2023-07-16T02:17:00;25.0;71
77700;DHT22;66867;42.658;23.320;2023-07-16T02:18:00;24.9;71
77700;DHT22;66867;42.658;23.320;2023-07-16T02:19:00;24.9;71
77700;DHT22;66867;42.658;23.320;2023-07-16T02:20:00;25.0;71
77700;DHT22;66867;42.658;23.320;2023-07-16T02:21:00;25.0;71
77700;DHT22;66867;42.658;23.320;2023-07-16T02:22:00;24.9;71
77700;DHT22;66867;42.658;23.320;2023-07-16T02:23:00;24.9;71
77700;DHT22;66867;42.658;23.320;2023-07-16T02:24:00;24.9;71
77700;DHT22;66867;42.658;23.320;2023-07-16T02:25:00;24.9;71
77700;DHT22;66867;42.658;23.320;2023-07-16T02:26:00;24.9;71
77700;DHT22;66867;42.658;23.320;2023-07-16T02:27:00;24.9;71
77700;DHT22;66867;42.658;23.320;2023-07-16T02:28:00;24.8;71
77700;DHT22;66867;42.658;23.320;2023-07-16T02:29:00;24.9;71
77700;DHT22;66867;42.658;23.320;2023-07-16T02:30:00;24.9;71
77700;DHT22;66867;42.658;23.320;2023-07-16T02:31:00;24.8;71
77700;DHT22;66867;42.658;23.320;2023-07-16T02:32:00;24.8;71
77700;DHT22;66867;42.658;23.320;2023-07-16T02:33:00;24.8;71
77700;DHT22;66867;42.658;23.320;2023-07-16T02:34:00;24.8;71
77700;DHT22;66867;42.658;23.320;2023-07-16T02:35:00;24.8;71
77700;DHT22;66867;42.658;23.320;2023-07-16T02:36:00;24.8;71
77700;DHT22;66867;42.658;23.320;2023-07-16T02:37:00;24.9;71
77700;DHT22;66867;42.658;23.320;2023-07-16T02:38:00;24.9;71
77700;DHT22;66867;42.658;23.320;2023-07-16T02:39:00;24.9;71
77700;DHT22;66867;42.658;23.320;2023-07-16T02:40:00;24.8;71
77700;DHT22;66867;42.658;23.320;2023-07-16T02:41:00;24.8;71
77700;DHT22;66867;42.658;23.320;2023-07-16T02:42:00;24.8;71
77700;DHT22;66867;42.658;23.320;2023-07-16T02:43:00;24.8;71
77700;DHT22;66867;42.658;23.320;2023-07-16T02:44:01;24.8;71
77700;DHT22;66867;42.658;23.320;2023-07-16T02:45:00;24.8;71
77700;DHT22;66867;42.658;23.320;2023-07-16T02:46:00;24.8;71
77700;DHT22;66867;42.658;23.320;2023-07-16T02:47:00;24.8;71
77700;DHT22;66867;42.658;23.320;2023-07-16T02:48:00;24.8;71
77700;DHT22;66867;42.658;23.320;2023-07-16T02:49:00;24.8;71
77700;DHT22;66867;42.658;23.320;2023-07-16T02:50:00;24.8;71
77700;DHT22;66867;42.658;23.320;2023-07-16T02:51:00;24.8;71
77700;DHT22;66867;42.658;23.320;2023-07-16T02:52:00;24.8;71
77700;DHT22;66867;42.658;23.320;2023-07-16T02:53:00;24.8;71
77700;DHT22;66867;42.658;23.320;2023-07-16T02:54:00;24.8;71
77700;DHT22;66867;42.658;23.320;2023-07-16T02:55:00;24.8;71
77700;DHT22;66867;42.658;23.320;2023-07-16T02:56:00;24.8;71
77700;DHT22;66867;42.658;23.320;2023-07-16T02:57:00;24.8;71
77700;DHT22;66867;42.658;23.320;2023-07-16T02:58:00;24.8;71
77700;DHT22;66867;42.658;23.320;2023-07-16T02:59:00;24.8;71
77700;DHT22;66867;42.658;23.320;2023-07-16T03:00:00;24.8;71
77700;DHT22;66867;42.658;23.320;2023-07-16T03:01:00;24.8;71
77700;DHT22;66867;42.658;23.320;2023-07-16T03:02:00;24.8;71
77700;DHT22;66867;42.658;23.320;2023-07-16T03:03:00;24.8;71
77700;DHT22;66867;42.658;23.320;2023-07-16T03:04:00;24.8;71
77700;DHT22;66867;42.658;23.320;2023-07-16T03:05:00;24.8;71
77700;DHT22;66867;42.658;23.320;2023-07-16T03:06:00;24.8;71
77700;DHT22;66867;42.658;23.320;2023-07-16T03:07:00;24.7;71
77700;DHT22;66867;42.658;23.320;2023-07-16T03:08:00;24.7;71
77700;DHT22;66867;42.658;23.320;2023-07-16T03:09:00;24.7;71
77700;DHT22;66867;42.658;23.320;2023-07-16T03:10:00;24.7;72
77700;DHT22;66867;42.658;23.320;2023-07-16T03:11:00;24.7;71
77700;DHT22;66867;42.658;23.320;2023-07-16T03:12:00;24.7;71
77700;DHT22;66867;42.658;23.320;2023-07-16T03:13:00;24.7;71
77700;DHT22;66867;42.658;23.320;2023-07-16T03:14:00;24.7;71
77700;DHT22;66867;42.658;23.320;2023-07-16T03:15:00;24.7;71
77700;DHT22;66867;42.658;23.320;2023-07-16T03:16:00;24.7;71
77700;DHT22;66867;42.658;23.320;2023-07-16T03:17:00;24.7;72
77700;DHT22;66867;42.658;23.320;2023-07-16T03:18:00;24.7;72
77700;DHT22;66867;42.658;23.320;2023-07-16T03:19:00;24.7;72
77700;DHT22;66867;42.658;23.320;2023-07-16T03:20:00;24.7;71
77700;DHT22;66867;42.658;23.320;2023-07-16T03:21:00;24.7;72
77700;DHT22;66867;42.658;23.320;2023-07-16T03:22:00;24.6;72
77700;DHT22;66867;42.658;23.320;2023-07-16T03:23:00;24.7;72
77700;DHT22;66867;42.658;23.320;2023-07-16T03:24:00;24.7;72
77700;DHT22;66867;42.658;23.320;2023-07-16T03:25:00;24.6;72
77700;DHT22;66867;42.658;23.320;2023-07-16T03:26:00;24.6;72
77700;DHT22;66867;42.658;23.320;2023-07-16T03:27:00;24.6;72
77700;DHT22;66867;42.658;23.320;2023-07-16T03:28:00;24.6;72
77700;DHT22;66867;42.658;23.320;2023-07-16T03:29:00;24.5;73
77700;DHT22;66867;42.658;23.320;2023-07-16T03:30:00;24.5;72
77700;DHT22;66867;42.658;23.320;2023-07-16T03:31:01;24.5;73
77700;DHT22;66867;42.658;23.320;2023-07-16T03:32:00;24.5;73
77700;DHT22;66867;42.658;23.320;2023-07-16T03:33:00;24.5;73
77700;DHT22;66867;42.658;23.320;2023-07-16T03:34:00;24.4;74
77700;DHT22;66867;42.658;23.320;2023-07-16T03:35:00;24.5;74
77700;DHT22;66867;42.658;23.320;2023-07-16T03:36:00;24.5;73
77700;DHT22;66867;42.658;23.320;2023-07-16T03:37:00;24.5;73
77700;DHT22;66867;42.658;23.320;2023-07-16T03:38:00;24.5;73
77700;DHT22;66867;42.658;23.320;2023-07-16T03:39:00;24.5;73
77700;DHT22;66867;42.658;23.320;2023-07-16T03:40:17;24.4;73
77700;DHT22;66867;42.658;23.320;2023-07-16T03:41:00;24.4;74
77700;DHT22;66867;42.658;23.320;2023-07-16T03:42:00;24.4;74
77700;DHT22;66867;42.658;23.320;2023-07-16T03:43:00;24.4;74
77700;DHT22;66867;42.658;23.320;2023-07-16T03:44:00;24.4;74
77700;DHT22;66867;42.658;23.320;2023-07-16T03:45:00;24.4;74
77700;DHT22;66867;42.658;23.320;2023-07-16T03:46:00;24.4;74
77700;DHT22;66867;42.658;23.320;2023-07-16T03:47:00;24.4;74
77700;DHT22;66867;42.658;23.320;2023-07-16T03:48:00;24.4;73
77700;DHT22;66867;42.658;23.320;2023-07-16T03:49:00;24.4;73
77700;DHT22;66867;42.658;23.320;2023-07-16T03:50:00;24.4;73
77700;DHT22;66867;42.658;23.320;2023-07-16T03:51:00;24.4;73
77700;DHT22;66867;42.658;23.320;2023-07-16T03:52:00;24.4;73
77700;DHT22;66867;42.658;23.320;2023-07-16T03:53:00;24.4;73
77700;DHT22;66867;42.658;23.320;2023-07-16T03:54:00;24.4;73
77700;DHT22;66867;42.658;23.320;2023-07-16T03:55:00;24.4;73
77700;DHT22;66867;42.658;23.320;2023-07-16T03:56:00;24.4;73
77700;DHT22;66867;42.658;23.320;2023-07-16T03:57:00;24.4;73
77700;DHT22;66867;42.658;23.320;2023-07-16T03:58:00;24.5;74
77700;DHT22;66867;42.658;23.320;2023-07-16T03:59:00;24.4;73
77700;DHT22;66867;42.658;23.320;2023-07-16T04:00:00;24.5;73
77700;DHT22;66867;42.658;23.320;2023-07-16T04:01:00;24.4;73
77700;DHT22;66867;42.658;23.320;2023-07-16T04:02:00;24.5;72
77700;DHT22;66867;42.658;23.320;2023-07-16T04:03:00;24.5;73
77700;DHT22;66867;42.658;23.320;2023-07-16T04:04:00;24.4;73
77700;DHT22;66867;42.658;23.320;2023-07-16T04:05:00;24.4;73
77700;DHT22;66867;42.658;23.320;2023-07-16T04:06:01;24.4;73
77700;DHT22;66867;42.658;23.320;2023-07-16T04:07:00;24.4;73
77700;DHT22;66867;42.658;23.320;2023-07-16T04:08:00;24.4;73
77700;DHT22;66867;42.658;23.320;2023-07-16T04:09:00;24.4;73
77700;DHT22;66867;42.658;23.320;2023-07-16T04:10:00;24.4;73
77700;DHT22;66867;42.658;23.320;2023-07-16T04:11:00;24.4;73
77700;DHT22;66867;42.658;23.320;2023-07-16T04:12:00;24.4;73
77700;DHT22;66867;42.658;23.320;2023-07-16T04:13:00;24.4;73
77700;DHT22;66867;42.658;23.320;2023-07-16T04:14:00;24.5;73
77700;DHT22;66867;42.658;23.320;2023-07-16T04:15:00;24.5;73
77700;DHT22;66867;42.658;23.320;2023-07-16T04:16:00;24.5;73
77700;DHT22;66867;42.658;23.320;2023-07-16T04:17:00;24.5;73
77700;DHT22;66867;42.658;23.320;2023-07-16T04:18:00;24.5;73
77700;DHT22;66867;42.658;23.320;2023-07-16T04:19:00;24.6;73
77700;DHT22;66867;42.658;23.320;2023-07-16T04:20:00;24.5;73
77700;DHT22;66867;42.658;23.320;2023-07-16T04:21:00;24.5;73
77700;DHT22;66867;42.658;23.320;2023-07-16T04:22:00;24.6;73
77700;DHT22;66867;42.658;23.320;2023-07-16T04:23:00;24.6;73
77700;DHT22;66867;42.658;23.320;2023-07-16T04:24:00;24.6;73
77700;DHT22;66867;42.658;23.320;2023-07-16T04:25:00;24.5;73
77700;DHT22;66867;42.658;23.320;2023-07-16T04:26:00;24.6;74
77700;DHT22;66867;42.658;23.320;2023-07-16T04:27:00;24.6;73
77700;DHT22;66867;42.658;23.320;2023-07-16T04:28:00;24.6;73
77700;DHT22;66867;42.658;23.320;2023-07-16T04:29:00;24.6;73
77700;DHT22;66867;42.658;23.320;2023-07-16T04:30:00;24.6;73
77700;DHT22;66867;42.658;23.320;2023-07-16T04:31:00;24.6;73
77700;DHT22;66867;42.658;23.320;2023-07-16T04:32:01;24.6;73
77700;DHT22;66867;42.658;23.320;2023-07-16T04:33:00;24.6;73
77700;DHT22;66867;42.658;23.320;2023-07-16T04:34:00;24.6;73
77700;DHT22;66867;42.658;23.320;2023-07-16T04:35:00;24.6;73
77700;DHT22;66867;42.658;23.320;2023-07-16T04:36:00;24.6;73
77700;DHT22;66867;42.658;23.320;2023-07-16T04:37:00;24.7;73
77700;DHT22;66867;42.658;23.320;2023-07-16T04:38:00;24.7;73
77700;DHT22;66867;42.658;23.320;2023-07-16T04:39:00;24.7;73
77700;DHT22;66867;42.658;23.320;2023-07-16T04:40:00;24.7;73
77700;DHT22;66867;42.658;23.320;2023-07-16T04:41:00;24.7;73
77700;DHT22;66867;42.658;23.320;2023-07-16T04:42:00;24.8;73
77700;DHT22;66867;42.658;23.320;2023-07-16T04:43:00;24.8;73
77700;DHT22;66867;42.658;23.320;2023-07-16T04:44:00;24.8;72
77700;DHT22;66867;42.658;23.320;2023-07-16T04:45:00;24.8;73
77700;DHT22;66867;42.658;23.320;2023-07-16T04:46:00;24.8;73
77700;DHT22;66867;42.658;23.320;2023-07-16T04:47:00;24.8;73
77700;DHT22;66867;42.658;23.320;2023-07-16T04:48:00;24.9;72
77700;DHT22;66867;42.658;23.320;2023-07-16T04:49:01;24.8;73
77700;DHT22;66867;42.658;23.320;2023-07-16T04:50:00;24.8;73
77700;DHT22;66867;42.658;23.320;2023-07-16T04:51:00;24.8;73
77700;DHT22;66867;42.658;23.320;2023-07-16T04:52:00;24.9;73
77700;DHT22;66867;42.658;23.320;2023-07-16T04:53:00;24.9;73
77700;DHT22;66867;42.658;23.320;2023-07-16T04:54:00;24.9;72
77700;DHT22;66867;42.658;23.320;2023-07-16T04:55:00;24.8;72
77700;DHT22;66867;42.658;23.320;2023-07-16T04:56:00;24.8;72
77700;DHT22;66867;42.658;23.320;2023-07-16T04:57:00;24.8;72
77700;DHT22;66867;42.658;23.320;2023-07-16T04:58:00;24.8;72
77700;DHT22;66867;42.658;23.320;2023-07-16T04:59:00;24.9;72
77700;DHT22;66867;42.658;23.320;2023-07-16T05:00:00;24.9;72
77700;DHT22;66867;42.658;23.320;2023-07-16T05:01:00;24.8;72
77700;DHT22;66867;42.658;23.320;2023-07-16T05:02:01;24.8;72
77700;DHT22;66867;42.658;23.320;2023-07-16T05:03:00;24.9;72
77700;DHT22;66867;42.658;23.320;2023-07-16T05:04:00;24.9;71
77700;DHT22;66867;42.658;23.320;2023-07-16T05:05:00;24.9;72
77700;DHT22;66867;42.658;23.320;2023-07-16T05:06:00;24.8;71
77700;DHT22;66867;42.658;23.320;2023-07-16T05:07:02;24.9;72
77700;DHT22;66867;42.658;23.320;2023-07-16T05:08:00;24.9;72
77700;DHT22;66867;42.658;23.320;2023-07-16T05:09:00;24.9;72
77700;DHT22;66867;42.658;23.320;2023-07-16T05:10:00;24.9;72
77700;DHT22;66867;42.658;23.320;2023-07-16T05:11:01;25.0;72
77700;DHT22;66867;42.658;23.320;2023-07-16T05:12:00;25.0;72
77700;DHT22;66867;42.658;23.320;2023-07-16T05:13:00;25.0;71
77700;DHT22;66867;42.658;23.320;2023-07-16T05:14:00;25.0;72
77700;DHT22;66867;42.658;23.320;2023-07-16T05:15:00;25.0;72
77700;DHT22;66867;42.658;23.320;2023-07-16T05:16:00;25.1;72
77700;DHT22;66867;42.658;23.320;2023-07-16T05:17:00;25.0;71
77700;DHT22;66867;42.658;23.320;2023-07-16T05:18:00;25.1;71
77700;DHT22;66867;42.658;23.320;2023-07-16T05:19:00;25.1;71
77700;DHT22;66867;42.658;23.320;2023-07-16T05:20:00;25.1;71
77700;DHT22;66867;42.658;23.320;2023-07-16T05:21:00;25.2;71
77700;DHT22;66867;42.658;23.320;2023-07-16T05:22:00;25.2;72
77700;DHT22;66867;42.658;23.320;2023-07-16T05:23:00;25.2;71
77700;DHT22;66867;42.658;23.320;2023-07-16T05:24:00;25.2;72
77700;DHT22;66867;42.658;23.320;2023-07-16T05:25:00;25.2;72
77700;DHT22;66867;42.658;23.320;2023-07-16T05:26:00;25.2;72
77700;DHT22;66867;42.658;23.320;2023-07-16T05:27:00;25.2;72
77700;DHT22;66867;42.658;23.320;2023-07-16T05:28:00;25.2;72
77700;DHT22;66867;42.658;23.320;2023-07-16T05:29:00;25.2;72
77700;DHT22;66867;42.658;23.320;2023-07-16T05:30:00;25.2;72
77700;DHT22;66867;42.658;23.320;2023-07-16T05:31:00;25.3;72
77700;DHT22;66867;42.658;23.320;2023-07-16T05:32:00;25.3;72
77700;DHT22;66867;42.658;23.320;2023-07-16T05:33:00;25.3;72
77700;DHT22;66867;42.658;23.320;2023-07-16T05:34:00;25.4;72
77700;DHT22;66867;42.658;23.320;2023-07-16T05:35:00;25.4;72
77700;DHT22;66867;42.658;23.320;2023-07-16T05:36:00;25.4;72
77700;DHT22;66867;42.658;23.320;2023-07-16T05:37:00;25.5;72
77700;DHT22;66867;42.658;23.320;2023-07-16T05:38:00;25.5;71
77700;DHT22;66867;42.658;23.320;2023-07-16T05:39:00;25.5;71
77700;DHT22;66867;42.658;23.320;2023-07-16T05:40:00;25.5;71
77700;DHT22;66867;42.658;23.320;2023-07-16T05:41:01;25.6;71
77700;DHT22;66867;42.658;23.320;2023-07-16T05:42:00;25.6;71
77700;DHT22;66867;42.658;23.320;2023-07-16T05:43:00;25.7;71
77700;DHT22;66867;42.658;23.320;2023-07-16T05:44:00;25.7;71
77700;DHT22;66867;42.658;23.320;2023-07-16T05:45:00;25.8;72
77700;DHT22;66867;42.658;23.320;2023-07-16T05:46:00;25.8;72
77700;DHT22;66867;42.658;23.320;2023-07-16T05:47:00;25.8;72
77700;DHT22;66867;42.658;23.320;2023-07-16T05:48:00;25.8;71
77700;DHT22;66867;42.658;23.320;2023-07-16T05:49:00;25.8;72
77700;DHT22;66867;42.658;23.320;2023-07-16T05:50:00;25.9;72
77700;DHT22;66867;42.658;23.320;2023-07-16T05:51:00;25.9;72
77700;DHT22;66867;42.658;23.320;2023-07-16T05:52:00;25.9;72
77700;DHT22;66867;42.658;23.320;2023-07-16T05:53:00;25.9;72
77700;DHT22;66867;42.658;23.320;2023-07-16T05:54:00;25.9;71
77700;DHT22;66867;42.658;23.320;2023-07-16T05:55:00;26.0;70
77700;DHT22;66867;42.658;23.320;2023-07-16T05:56:00;26.0;70
77700;DHT22;66867;42.658;23.320;2023-07-16T05:57:00;26.1;70
77700;DHT22;66867;42.658;23.320;2023-07-16T05:58:00;26.1;70
77700;DHT22;66867;42.658;23.320;2023-07-16T05:59:00;26.2;70
77700;DHT22;66867;42.658;23.320;2023-07-16T06:00:00;26.2;71
77700;DHT22;66867;42.658;23.320;2023-07-16T06:01:00;26.3;71
77700;DHT22;66867;42.658;23.320;2023-07-16T06:02:00;26.3;71
77700;DHT22;66867;42.658;23.320;2023-07-16T06:03:01;26.3;71
77700;DHT22;66867;42.658;23.320;2023-07-16T06:04:00;26.4;71
77700;DHT22;66867;42.658;23.320;2023-07-16T06:05:00;26.3;70
77700;DHT22;66867;42.658;23.320;2023-07-16T06:06:00;26.3;71
77700;DHT22;66867;42.658;23.320;2023-07-16T06:07:00;26.4;70
77700;DHT22;66867;42.658;23.320;2023-07-16T06:08:00;26.5;71
77700;DHT22;66867;42.658;23.320;2023-07-16T06:09:00;26.5;71
77700;DHT22;66867;42.658;23.320;2023-07-16T06:10:00;26.5;70
77700;DHT22;66867;42.658;23.320;2023-07-16T06:11:00;26.5;70
77700;DHT22;66867;42.658;23.320;2023-07-16T06:12:00;26.6;70
77700;DHT22;66867;42.658;23.320;2023-07-16T06:13:00;26.6;70
77700;DHT22;66867;42.658;23.320;2023-07-16T06:14:00;26.6;70
77700;DHT22;66867;42.658;23.320;2023-07-16T06:15:00;26.7;70
77700;DHT22;66867;42.658;23.320;2023-07-16T06:16:00;26.7;69
77700;DHT22;66867;42.658;23.320;2023-07-16T06:17:00;26.7;70
77700;DHT22;66867;42.658;23.320;2023-07-16T06:18:00;26.7;69
77700;DHT22;66867;42.658;23.320;2023-07-16T06:19:00;26.7;69
77700;DHT22;66867;42.658;23.320;2023-07-16T06:20:01;26.7;69
77700;DHT22;66867;42.658;23.320;2023-07-16T06:21:00;26.8;69
77700;DHT22;66867;42.658;23.320;2023-07-16T06:22:00;26.8;70
77700;DHT22;66867;42.658;23.320;2023-07-16T06:23:00;26.8;70
77700;DHT22;66867;42.658;23.320;2023-07-16T06:24:00;26.9;69
77700;DHT22;66867;42.658;23.320;2023-07-16T06:25:00;26.9;69
77700;DHT22;66867;42.658;23.320;2023-07-16T06:26:00;27.0;69
77700;DHT22;66867;42.658;23.320;2023-07-16T06:27:00;27.0;68
77700;DHT22;66867;42.658;23.320;2023-07-16T06:28:00;27.0;68
77700;DHT22;66867;42.658;23.320;2023-07-16T06:29:00;27.0;68
77700;DHT22;66867;42.658;23.320;2023-07-16T06:30:00;27.0;68
77700;DHT22;66867;42.658;23.320;2023-07-16T06:31:00;27.1;68
77700;DHT22;66867;42.658;23.320;2023-07-16T06:32:00;27.1;68
77700;DHT22;66867;42.658;23.320;2023-07-16T06:33:00;27.2;68
77700;DHT22;66867;42.658;23.320;2023-07-16T06:34:00;27.2;68
77700;DHT22;66867;42.658;23.320;2023-07-16T06:35:00;27.2;68
77700;DHT22;66867;42.658;23.320;2023-07-16T06:36:00;27.2;68
77700;DHT22;66867;42.658;23.320;2023-07-16T06:37:00;27.3;68
77700;DHT22;66867;42.658;23.320;2023-07-16T06:38:00;27.3;68
77700;DHT22;66867;42.658;23.320;2023-07-16T06:39:00;27.3;68
77700;DHT22;66867;42.658;23.320;2023-07-16T06:40:00;27.3;68
77700;DHT22;66867;42.658;23.320;2023-07-16T06:41:00;27.4;68
77700;DHT22;66867;42.658;23.320;2023-07-16T06:42:00;27.4;68
77700;DHT22;66867;42.658;23.320;2023-07-16T06:43:00;27.5;68
77700;DHT22;66867;42.658;23.320;2023-07-16T06:44:00;27.5;68
77700;DHT22;66867;42.658;23.320;2023-07-16T06:45:00;27.6;68
77700;DHT22;66867;42.658;23.320;2023-07-16T06:46:00;27.6;68
77700;DHT22;66867;42.658;23.320;2023-07-16T06:47:00;27.6;68